createdAt,value
2023-03-04T00:01:10.740Z,12.87
2023-03-04T00:03:57.267Z,12.60
2023-03-04T00:06:43.408Z,10.43
2023-03-04T00:09:29.584Z,11.37
2023-03-04T00:12:15.951Z,11.63
2023-03-04T00:15:02.294Z,11.00
2023-03-04T00:17:50.064Z,12.03
2023-03-04T00:20:36.374Z,12.13
2023-03-04T00:23:22.894Z,11.17
2023-03-04T00:26:10.255Z,9.13
2023-03-04T00:28:56.626Z,12.10
2023-03-04T00:31:42.805Z,11.03
2023-03-04T00:34:32.750Z,10.10
2023-03-04T00:37:19.212Z,11.20
2023-03-04T00:40:06.200Z,10.73
2023-03-04T00:42:52.575Z,12.37
2023-03-04T00:45:38.955Z,10.60
2023-03-04T00:48:25.432Z,11.43
2023-03-04T00:51:13.076Z,10.70
2023-03-04T00:54:00.922Z,14.67
2023-03-04T00:56:47.659Z,15.10
2023-03-04T00:59:34.213Z,15.77
2023-03-04T01:02:20.836Z,12.50
2023-03-04T01:05:08.133Z,11.77
2023-03-04T01:07:56.372Z,9.93
2023-03-04T01:10:42.812Z,8.47
2023-03-04T01:13:29.240Z,8.30
2023-03-04T01:16:15.513Z,9.03
2023-03-04T01:19:02.071Z,8.33
2023-03-04T01:21:48.530Z,6.57
2023-03-04T01:24:36.652Z,8.17
2023-03-04T01:27:22.883Z,7.63
2023-03-04T01:30:09.952Z,9.17
2023-03-04T01:32:55.951Z,10.20
2023-03-04T01:35:42.558Z,11.17
2023-03-04T01:38:29.076Z,10.83
2023-03-04T01:41:18.629Z,9.03
2023-03-04T01:44:04.938Z,11.53
2023-03-04T01:46:52.933Z,11.20
2023-03-04T01:49:39.072Z,11.27
2023-03-04T01:52:26.011Z,11.60
2023-03-04T01:55:16.266Z,10.17
2023-03-04T01:58:07.023Z,9.53
2023-03-04T02:00:53.249Z,9.80
2023-03-04T02:03:39.978Z,10.37
2023-03-04T02:06:26.379Z,9.20
2023-03-04T02:09:12.841Z,9.73
2023-03-04T02:11:59.269Z,8.63
2023-03-04T02:14:46.768Z,8.97
2023-03-04T02:17:33.976Z,8.53
2023-03-04T02:20:24.204Z,8.80
2023-03-04T02:23:12.536Z,9.10
2023-03-04T02:26:19.843Z,7.67
2023-03-04T02:29:07.361Z,7.67
2023-03-04T02:31:54.956Z,8.27
2023-03-04T02:34:46.193Z,9.00
2023-03-04T02:37:32.752Z,8.70
2023-03-04T02:40:23.285Z,8.57
2023-03-04T02:43:10.958Z,7.03
2023-03-04T02:45:58.747Z,9.57
2023-03-04T02:48:45.046Z,9.87
2023-03-04T02:51:31.185Z,10.80
2023-03-04T02:54:18.489Z,11.80
2023-03-04T02:57:06.194Z,8.53
2023-03-04T02:59:52.538Z,7.40
2023-03-04T03:02:40.455Z,9.93
2023-03-04T03:05:27.866Z,9.07
2023-03-04T03:08:14.471Z,7.90
2023-03-04T03:11:00.814Z,8.50
2023-03-04T03:13:47.157Z,10.93
2023-03-04T03:16:33.438Z,9.43
2023-03-04T03:19:21.515Z,9.67
2023-03-04T03:22:07.862Z,9.83
2023-03-04T03:24:54.179Z,8.73
2023-03-04T03:27:40.454Z,9.40
2023-03-04T03:30:26.576Z,8.67
2023-03-04T03:33:12.977Z,9.03
2023-03-04T03:36:01.327Z,9.33
2023-03-04T03:38:47.854Z,10.13
2023-03-04T03:41:34.570Z,7.60
2023-03-04T03:44:21.127Z,9.83
2023-03-04T03:47:07.173Z,8.60
2023-03-04T03:49:53.269Z,9.50
2023-03-04T03:52:41.201Z,7.90
2023-03-04T03:55:27.315Z,8.60
2023-03-04T03:58:14.420Z,9.40
2023-03-04T04:01:00.730Z,10.50
2023-03-04T04:03:47.508Z,8.47
2023-03-04T04:06:33.855Z,9.30
2023-03-04T04:09:21.784Z,8.53
2023-03-04T04:12:08.488Z,8.77
2023-03-04T04:14:54.670Z,8.43
2023-03-04T04:17:41.278Z,10.00
2023-03-04T04:20:27.888Z,9.37
2023-03-04T04:23:14.137Z,9.10
2023-03-04T04:26:01.903Z,7.77
2023-03-04T04:28:48.354Z,8.10
2023-03-04T04:31:34.878Z,8.47
2023-03-04T04:34:21.198Z,9.03
2023-03-04T04:37:07.581Z,10.27
2023-03-04T04:39:55.442Z,7.13
2023-03-04T04:42:45.333Z,7.93
2023-03-04T04:45:31.827Z,8.93
2023-03-04T04:48:18.485Z,8.77
2023-03-04T04:51:04.782Z,9.30
2023-03-04T04:53:51.287Z,9.23
2023-03-04T04:56:37.635Z,8.93
2023-03-04T04:59:25.433Z,7.77
2023-03-04T05:02:11.898Z,8.57
2023-03-04T05:04:58.327Z,8.63
2023-03-04T05:07:44.852Z,9.40
2023-03-04T05:10:31.056Z,9.90
2023-03-04T05:13:17.017Z,8.90
2023-03-04T05:16:05.217Z,8.43
2023-03-04T05:18:51.850Z,7.70
2023-03-04T05:21:38.003Z,8.87
2023-03-04T05:24:24.521Z,6.70
2023-03-04T05:27:10.917Z,7.83
2023-03-04T05:30:00.903Z,7.73
2023-03-04T05:32:48.527Z,9.23
2023-03-04T05:35:35.119Z,7.53
2023-03-04T05:38:22.115Z,8.40
2023-03-04T05:41:08.549Z,9.60
2023-03-04T05:43:54.706Z,8.47
2023-03-04T05:46:41.273Z,8.37
2023-03-04T05:49:28.981Z,10.30
2023-03-04T05:52:15.308Z,8.97
2023-03-04T05:55:01.586Z,9.20
2023-03-04T05:57:47.645Z,10.20
2023-03-04T06:00:33.822Z,9.87
2023-03-04T06:03:21.629Z,9.03
2023-03-04T06:06:09.859Z,10.00
2023-03-04T06:08:56.254Z,8.97
2023-03-04T06:11:42.810Z,11.80
2023-03-04T06:14:28.951Z,11.37
2023-03-04T06:17:15.493Z,12.23
2023-03-04T06:20:01.752Z,11.70
2023-03-04T06:22:49.551Z,11.37
2023-03-04T06:25:36.006Z,10.43
2023-03-04T06:28:22.631Z,11.33
2023-03-04T06:31:08.874Z,10.07
2023-03-04T06:33:55.349Z,9.90
2023-03-04T06:36:41.939Z,8.70
2023-03-04T06:39:29.406Z,6.80
2023-03-04T06:42:15.778Z,7.13
2023-03-04T06:45:02.053Z,8.53
2023-03-04T06:47:48.537Z,7.07
2023-03-04T06:50:35.344Z,10.87
2023-03-04T06:53:22.004Z,8.37
2023-03-04T06:56:11.386Z,12.60
2023-03-04T06:58:57.793Z,7.77
2023-03-04T07:01:44.298Z,9.23
2023-03-04T07:04:30.960Z,16.17
2023-03-04T07:07:17.104Z,7.50
2023-03-04T07:10:03.602Z,7.07
2023-03-04T07:12:51.177Z,7.30
2023-03-04T07:15:38.543Z,5.40
2023-03-04T07:18:24.872Z,7.30
2023-03-04T07:21:11.656Z,7.57
2023-03-04T07:23:58.133Z,6.03
2023-03-04T07:26:44.471Z,7.27
2023-03-04T07:29:32.332Z,7.30
2023-03-04T07:32:18.608Z,7.80
2023-03-04T07:35:05.182Z,6.93
2023-03-04T07:37:51.279Z,7.50
2023-03-04T07:40:37.899Z,7.50
2023-03-04T07:43:24.121Z,6.80
2023-03-04T07:46:11.830Z,6.63
2023-03-04T07:48:58.198Z,7.63
2023-03-04T07:51:44.652Z,6.90
2023-03-04T07:54:31.222Z,6.93
2023-03-04T07:57:17.242Z,8.10
2023-03-04T08:00:03.629Z,8.77
2023-03-04T08:02:51.082Z,8.33
2023-03-04T08:05:40.142Z,8.63
2023-03-04T08:08:26.386Z,8.43
2023-03-04T08:11:14.343Z,8.23
2023-03-04T08:14:00.816Z,10.43
2023-03-04T08:16:47.226Z,9.40
2023-03-04T08:19:34.815Z,9.43
2023-03-04T08:22:21.135Z,8.73
2023-03-04T08:25:07.699Z,9.43
2023-03-04T08:27:53.839Z,10.00
2023-03-04T08:30:40.681Z,10.93
2023-03-04T08:33:27.025Z,11.03
2023-03-04T08:36:15.473Z,11.47
2023-03-04T08:39:01.543Z,12.00
2023-03-04T08:41:48.315Z,10.80
2023-03-04T08:44:34.766Z,10.77
2023-03-04T08:47:21.201Z,13.10
2023-03-04T08:50:08.643Z,12.37
2023-03-04T08:52:56.446Z,12.53
2023-03-04T08:55:43.323Z,12.83
2023-03-04T08:58:29.717Z,10.13
2023-03-04T09:01:17.122Z,11.97
2023-03-04T09:04:03.206Z,10.40
2023-03-04T09:06:49.374Z,12.00
2023-03-04T09:09:36.943Z,11.00
2023-03-04T09:12:23.519Z,10.53
2023-03-04T09:15:11.991Z,10.23
2023-03-04T09:17:58.915Z,11.77
2023-03-04T09:20:45.892Z,11.00
2023-03-04T09:23:32.310Z,8.33
2023-03-04T09:26:22.007Z,10.37
2023-03-04T09:29:08.626Z,10.67
2023-03-04T09:31:54.983Z,9.10
2023-03-04T09:34:41.224Z,8.87
2023-03-04T09:37:27.525Z,7.10
2023-03-04T09:40:19.255Z,8.80
2023-03-04T09:43:12.747Z,7.87
2023-03-04T09:46:01.227Z,7.73
2023-03-04T09:48:49.498Z,6.17
2023-03-04T09:51:43.068Z,6.67
2023-03-04T09:54:38.173Z,5.70
2023-03-04T09:57:31.044Z,6.63
2023-03-04T10:00:20.343Z,6.80
2023-03-04T10:03:11.669Z,4.60
2023-03-04T10:06:00.908Z,3.87
2023-03-04T10:08:49.805Z,4.60
2023-03-04T10:11:39.410Z,5.40
2023-03-04T10:14:34.252Z,5.10
2023-03-04T10:17:25.147Z,4.50
2023-03-04T10:20:13.756Z,5.23
2023-03-04T10:23:01.110Z,4.33
2023-03-04T10:25:51.883Z,6.33
2023-03-04T10:28:38.438Z,4.17
2023-03-04T10:31:31.279Z,4.83
2023-03-04T10:34:19.313Z,4.93
2023-03-04T10:37:07.629Z,4.33
2023-03-04T10:39:54.165Z,4.33
2023-03-04T10:42:40.973Z,4.80
2023-03-04T10:45:30.706Z,4.93
2023-03-04T10:48:21.564Z,4.60
2023-03-04T10:51:19.792Z,4.70
2023-03-04T10:54:08.907Z,4.40
2023-03-04T10:56:57.219Z,3.90
2023-03-04T10:59:50.522Z,3.70
2023-03-04T11:02:37.414Z,4.03
2023-03-04T11:05:24.261Z,4.07
2023-03-04T11:08:17.785Z,4.10
2023-03-04T11:11:03.828Z,4.17
2023-03-04T11:13:54.206Z,3.90
2023-03-04T11:16:40.459Z,4.30
2023-03-04T11:19:30.654Z,4.10
2023-03-04T11:22:18.323Z,3.83
2023-03-04T11:25:07.934Z,3.60
2023-03-04T11:27:55.904Z,3.57
2023-03-04T11:30:44.523Z,3.87
2023-03-04T11:33:43.189Z,5.23
2023-03-04T11:36:33.150Z,4.90
2023-03-04T11:39:21.982Z,4.87
2023-03-04T11:42:15.304Z,4.43
2023-03-04T11:45:02.337Z,4.67
2023-03-04T11:47:53.483Z,4.27
2023-03-04T11:50:45.736Z,5.37
2023-03-04T11:53:39.906Z,4.73
2023-03-04T11:56:31.397Z,5.13
2023-03-04T11:59:41.587Z,4.70
2023-03-04T12:02:32.817Z,5.23
2023-03-04T12:05:24.786Z,4.73
2023-03-04T12:08:28.999Z,4.47
2023-03-04T12:11:19.427Z,4.50
2023-03-04T12:14:23.082Z,4.63
2023-03-04T12:17:27.608Z,4.63
2023-03-04T12:20:27.407Z,4.17
2023-03-04T12:23:21.532Z,4.17
2023-03-04T12:26:11.606Z,3.80
2023-03-04T12:28:59.258Z,4.43
2023-03-04T12:31:46.861Z,4.90
2023-03-04T12:34:56.564Z,4.40
2023-03-04T12:37:53.897Z,4.30
2023-03-04T12:40:44.442Z,5.30
2023-03-04T12:43:36.068Z,6.10
2023-03-04T12:46:32.998Z,4.30
2023-03-04T12:49:39.340Z,5.40
2023-03-04T12:52:33.046Z,4.30
2023-03-04T12:55:36.557Z,4.27
2023-03-04T12:58:24.922Z,4.60
2023-03-04T13:01:16.060Z,4.43
2023-03-04T13:04:04.902Z,4.67
2023-03-04T13:06:59.622Z,5.13
2023-03-04T13:09:51.238Z,5.63
2023-03-04T13:12:48.859Z,4.50
2023-03-04T13:15:36.632Z,3.27
2023-03-04T13:18:33.254Z,4.60
2023-03-04T13:21:23.846Z,4.40
2023-03-04T13:24:25.006Z,5.20
2023-03-04T13:27:26.216Z,4.70
2023-03-04T13:30:27.492Z,4.90
2023-03-04T13:33:32.687Z,4.63
2023-03-04T13:36:30.858Z,5.07
2023-03-04T13:39:25.498Z,5.67
2023-03-04T13:42:30.607Z,4.93
2023-03-04T13:45:34.912Z,4.33
2023-03-04T13:48:32.659Z,4.53
2023-03-04T13:51:28.977Z,3.77
2023-03-04T13:54:18.714Z,4.73
2023-03-04T13:57:18.722Z,5.17
2023-03-04T14:00:06.650Z,3.80
2023-03-04T14:02:52.888Z,4.77
2023-03-04T14:05:39.464Z,6.17
2023-03-04T14:08:26.728Z,5.47
2023-03-04T14:11:19.501Z,4.83
2023-03-04T14:14:06.803Z,4.13
2023-03-04T14:16:54.196Z,5.40
2023-03-04T14:19:45.971Z,4.97
2023-03-04T14:22:33.911Z,4.63
2023-03-04T14:25:24.785Z,4.33
2023-03-04T14:28:13.287Z,4.67
2023-03-04T14:30:59.604Z,4.87
2023-03-04T14:33:46.752Z,4.63
2023-03-04T14:36:33.935Z,4.33
2023-03-04T14:39:21.214Z,4.73
2023-03-04T14:42:10.437Z,4.00
2023-03-04T14:44:59.627Z,3.80
2023-03-04T14:47:47.580Z,4.53
2023-03-04T14:50:36.770Z,4.60
2023-03-04T14:53:24.591Z,5.03
2023-03-04T14:56:11.786Z,4.57
2023-03-04T14:58:59.135Z,5.33
2023-03-04T15:01:47.375Z,4.97
2023-03-04T15:04:34.935Z,4.37
2023-03-04T15:07:24.847Z,5.00
2023-03-04T15:10:13.650Z,4.70
2023-03-04T15:13:02.075Z,6.47
2023-03-04T15:15:48.884Z,5.43
2023-03-04T15:18:36.753Z,5.37
2023-03-04T15:21:30.924Z,4.53
2023-03-04T15:24:17.145Z,3.90
2023-03-04T15:27:07.848Z,5.70
2023-03-04T15:29:56.059Z,4.07
2023-03-04T15:32:42.371Z,5.10
2023-03-04T15:35:31.921Z,4.93
2023-03-04T15:38:18.567Z,4.63
2023-03-04T15:41:04.746Z,4.87
2023-03-04T15:43:51.121Z,4.73
2023-03-04T15:46:37.703Z,6.50
2023-03-04T15:49:25.313Z,5.80
2023-03-04T15:52:16.771Z,5.23
2023-03-04T15:55:03.036Z,4.60
2023-03-04T15:57:50.084Z,5.63
2023-03-04T16:00:37.257Z,9.70
2023-03-04T16:03:23.298Z,11.27
2023-03-04T16:06:10.886Z,10.53
2023-03-04T16:08:58.687Z,10.50
2023-03-04T16:11:47.663Z,11.10
2023-03-04T16:14:34.267Z,7.63
2023-03-04T16:17:20.925Z,9.07
2023-03-04T16:20:07.758Z,12.53
2023-03-04T16:22:55.884Z,10.57
2023-03-04T16:25:45.558Z,11.97
2023-03-04T16:28:31.810Z,11.93
2023-03-04T16:31:18.497Z,10.50
2023-03-04T16:34:05.261Z,13.47
2023-03-04T16:36:51.947Z,12.30
2023-03-04T16:39:38.259Z,12.43
2023-03-04T16:42:27.215Z,10.57
2023-03-04T16:45:17.188Z,12.60
2023-03-04T16:48:03.201Z,12.07
2023-03-04T16:50:49.703Z,16.40
2023-03-04T16:53:37.638Z,18.37
2023-03-04T16:56:24.178Z,20.43
2023-03-04T16:59:15.104Z,21.80
2023-03-04T17:02:01.296Z,16.97
2023-03-04T17:04:48.840Z,21.30
2023-03-04T17:07:35.072Z,20.57
2023-03-04T17:10:21.937Z,17.30
2023-03-04T17:13:08.719Z,19.53
2023-03-04T17:15:56.482Z,22.93
2023-03-04T17:18:42.908Z,26.47
2023-03-04T17:21:29.197Z,21.00
2023-03-04T17:24:15.324Z,13.77
2023-03-04T17:27:01.564Z,11.97
2023-03-04T17:29:49.114Z,11.53
2023-03-04T17:32:36.902Z,12.70
2023-03-04T17:35:23.094Z,26.60
2023-03-04T17:38:09.436Z,24.57
2023-03-04T17:40:56.593Z,21.23
2023-03-04T17:43:44.359Z,18.57
2023-03-04T17:46:30.726Z,14.53
2023-03-04T17:49:18.777Z,11.87
2023-03-04T17:52:05.988Z,12.17
2023-03-04T17:54:52.471Z,12.90
2023-03-04T17:57:38.908Z,12.43
2023-03-04T18:00:25.351Z,13.93
2023-03-04T18:03:12.810Z,10.83
2023-03-04T18:06:00.625Z,11.87
2023-03-04T18:08:47.351Z,15.60
2023-03-04T18:11:33.977Z,13.07
2023-03-04T18:14:20.366Z,13.67
2023-03-04T18:20:17.212Z,17.50
2023-03-04T18:23:05.343Z,28.03
2023-03-04T18:25:53.050Z,18.87
2023-03-04T18:28:39.671Z,15.70
2023-03-04T18:31:29.580Z,13.97
2023-03-04T18:34:17.457Z,13.17
2023-03-04T18:37:03.893Z,12.43
2023-03-04T18:39:51.514Z,14.00
2023-03-04T18:42:37.908Z,14.30
2023-03-04T18:45:24.235Z,11.77
2023-03-04T18:48:10.450Z,12.17
2023-03-04T18:50:58.355Z,11.87
2023-03-04T18:53:44.576Z,9.90
2023-03-04T18:56:37.813Z,12.03
2023-03-04T18:59:25.270Z,11.53
2023-03-04T19:02:15.277Z,7.80
2023-03-04T19:05:03.769Z,9.00
2023-03-04T19:07:50.037Z,10.53
2023-03-04T19:10:36.284Z,11.27
2023-03-04T19:13:24.337Z,7.83
2023-03-04T19:16:10.909Z,9.03
2023-03-04T19:18:57.464Z,9.57
2023-03-04T19:21:44.042Z,8.97
2023-03-04T19:24:30.253Z,7.97
2023-03-04T19:27:16.422Z,7.83
2023-03-04T19:30:04.880Z,7.43
2023-03-04T19:32:51.319Z,7.87
2023-03-04T19:35:41.466Z,7.80
2023-03-04T19:38:28.780Z,7.37
2023-03-04T19:41:15.947Z,6.17
2023-03-04T19:44:02.596Z,7.20
2023-03-04T19:46:50.396Z,7.00
2023-03-04T19:49:37.076Z,6.63
2023-03-04T19:52:23.312Z,7.63
2023-03-04T19:55:10.192Z,6.90
2023-03-04T19:57:56.385Z,7.77
2023-03-04T20:00:43.118Z,12.57
2023-03-04T20:03:31.199Z,9.90
2023-03-04T20:06:17.586Z,8.73
2023-03-04T20:09:03.975Z,7.97
2023-03-04T20:11:58.494Z,5.77
2023-03-04T20:14:45.276Z,6.47
2023-03-04T20:17:31.451Z,6.07
2023-03-04T20:20:19.581Z,5.83
2023-03-04T20:23:06.069Z,6.67
2023-03-04T20:25:53.556Z,7.78
2023-03-04T20:28:39.963Z,6.37
2023-03-04T20:31:27.167Z,6.80
2023-03-04T20:34:14.102Z,6.63
2023-03-04T20:37:01.877Z,6.33
2023-03-04T20:39:48.300Z,7.33
2023-03-04T20:42:34.674Z,7.23
2023-03-04T20:45:22.109Z,7.27
2023-03-04T20:48:08.413Z,6.93
2023-03-04T20:50:54.415Z,7.77
2023-03-04T20:53:42.539Z,7.60
2023-03-04T20:56:29.311Z,7.37
2023-03-04T20:59:15.891Z,6.67
2023-03-04T21:02:02.432Z,6.30
2023-03-04T21:04:48.911Z,6.77
2023-03-04T21:07:35.561Z,7.50
2023-03-04T21:10:23.465Z,7.73
2023-03-04T21:13:12.763Z,8.43
2023-03-04T21:15:59.687Z,8.13
2023-03-04T21:18:45.925Z,8.97
2023-03-04T21:21:32.157Z,10.57
2023-03-04T21:24:20.289Z,10.50
2023-03-04T21:27:08.651Z,11.10
2023-03-04T21:29:55.096Z,11.30
2023-03-04T21:32:41.644Z,11.90
2023-03-04T21:35:27.922Z,14.90
2023-03-04T21:38:14.294Z,16.53
2023-03-04T21:41:00.568Z,15.97
2023-03-04T21:43:48.096Z,13.47
2023-03-04T21:46:35.633Z,12.13
2023-03-04T21:49:21.956Z,14.03
2023-03-04T21:52:08.394Z,11.37
2023-03-04T21:54:55.999Z,8.67
2023-03-04T21:57:42.621Z,8.37
2023-03-04T22:06:06.424Z,7.30
2023-03-04T22:08:53.263Z,7.40
2023-03-04T22:11:39.719Z,8.33
2023-03-04T22:14:27.678Z,7.03
2023-03-04T22:17:14.240Z,7.10
2023-03-04T22:20:02.481Z,6.37
2023-03-04T22:22:49.963Z,7.40
2023-03-04T22:25:37.670Z,7.97
2023-03-04T22:28:25.201Z,8.17
2023-03-04T22:31:15.445Z,8.60
2023-03-04T22:34:02.581Z,7.87
2023-03-04T22:36:49.401Z,9.07
2023-03-04T22:39:37.291Z,7.20
2023-03-04T22:42:23.673Z,8.40
2023-03-04T22:45:10.661Z,7.03
2023-03-04T22:47:56.945Z,6.80
2023-03-04T22:50:43.048Z,7.67
2023-03-04T22:53:29.221Z,7.60
2023-03-04T22:56:17.307Z,7.50
2023-03-04T22:59:03.455Z,7.53
2023-03-04T23:01:49.617Z,6.17
2023-03-04T23:04:35.854Z,6.17
2023-03-04T23:07:22.393Z,5.70
2023-03-04T23:10:09.838Z,6.07
2023-03-04T23:12:57.586Z,5.23
2023-03-04T23:15:43.989Z,5.07
2023-03-04T23:18:30.316Z,5.57
2023-03-04T23:21:17.809Z,6.80
2023-03-04T23:24:05.180Z,5.67
2023-03-04T23:26:52.450Z,5.80
2023-03-04T23:29:40.360Z,4.90
2023-03-04T23:32:26.723Z,6.37
2023-03-04T23:35:13.312Z,6.23
2023-03-04T23:37:59.453Z,6.67
2023-03-04T23:40:45.878Z,6.60
2023-03-04T23:43:33.001Z,6.03
2023-03-04T23:46:21.281Z,6.30
2023-03-04T23:49:08.645Z,6.90
2023-03-04T23:51:55.112Z,6.27
2023-03-04T23:54:41.591Z,5.83
2023-03-04T23:57:27.905Z,7.27
